sensor_id;sensor_type;location;lat;lon;timestamp;temperature;humidity
14995;DHT22;7593;49.006;8.372;2022-09-06T00:00:41;20.60;99.90
14995;DHT22;7593;49.006;8.372;2022-09-06T00:03:08;20.50;99.90
14995;DHT22;7593;49.006;8.372;2022-09-06T00:05:35;20.50;99.90
14995;DHT22;7593;49.006;8.372;2022-09-06T00:08:03;20.50;99.90
14995;DHT22;7593;49.006;8.372;2022-09-06T00:10:31;20.50;99.90
14995;DHT22;7593;49.006;8.372;2022-09-06T00:13:01;20.50;99.90
14995;DHT22;7593;49.006;8.372;2022-09-06T00:15:29;20.40;99.90
14995;DHT22;7593;49.006;8.372;2022-09-06T00:17:57;20.40;99.90
14995;DHT22;7593;49.006;8.372;2022-09-06T00:20:25;20.30;99.90
14995;DHT22;7593;49.006;8.372;2022-09-06T00:22:55;20.20;99.90
14995;DHT22;7593;49.006;8.372;2022-09-06T00:25:22;20.10;99.90
14995;DHT22;7593;49.006;8.372;2022-09-06T00:27:53;20.00;99.90
14995;DHT22;7593;49.006;8.372;2022-09-06T00:30:23;19.90;99.90
14995;DHT22;7593;49.006;8.372;2022-09-06T00:32:50;20.00;99.90
14995;DHT22;7593;49.006;8.372;2022-09-06T00:35:18;20.00;99.90
14995;DHT22;7593;49.006;8.372;2022-09-06T00:37:44;19.90;99.90
14995;DHT22;7593;49.006;8.372;2022-09-06T00:40:12;19.80;99.90
14995;DHT22;7593;49.006;8.372;2022-09-06T00:42:39;19.70;99.90
14995;DHT22;7593;49.006;8.372;2022-09-06T00:45:08;19.60;99.90
14995;DHT22;7593;49.006;8.372;2022-09-06T00:47:39;19.60;99.90
14995;DHT22;7593;49.006;8.372;2022-09-06T00:50:08;19.60;99.90
14995;DHT22;7593;49.006;8.372;2022-09-06T00:52:36;19.60;99.90
14995;DHT22;7593;49.006;8.372;2022-09-06T00:55:05;19.70;99.90
14995;DHT22;7593;49.006;8.372;2022-09-06T00:57:32;19.70;99.90
14995;DHT22;7593;49.006;8.372;2022-09-06T01:00:00;19.80;99.90
14995;DHT22;7593;49.006;8.372;2022-09-06T01:02:27;19.90;99.90
14995;DHT22;7593;49.006;8.372;2022-09-06T01:04:56;19.90;99.90
14995;DHT22;7593;49.006;8.372;2022-09-06T01:07:33;20.00;99.90
14995;DHT22;7593;49.006;8.372;2022-09-06T01:10:17;20.00;99.90
14995;DHT22;7593;49.006;8.372;2022-09-06T01:12:49;20.00;99.90
14995;DHT22;7593;49.006;8.372;2022-09-06T01:15:29;20.00;99.90
14995;DHT22;7593;49.006;8.372;2022-09-06T01:18:07;20.00;99.90
14995;DHT22;7593;49.006;8.372;2022-09-06T01:20:57;19.90;99.90
14995;DHT22;7593;49.006;8.372;2022-09-06T01:29:37;20.00;99.90
14995;DHT22;7593;49.006;8.372;2022-09-06T01:32:10;20.00;99.90
14995;DHT22;7593;49.006;8.372;2022-09-06T01:34:43;19.90;99.90
14995;DHT22;7593;49.006;8.372;2022-09-06T01:37:13;19.70;99.90
14995;DHT22;7593;49.006;8.372;2022-09-06T01:39:41;19.50;99.90
14995;DHT22;7593;49.006;8.372;2022-09-06T01:42:11;19.30;99.90
14995;DHT22;7593;49.006;8.372;2022-09-06T01:44:42;19.10;99.90
14995;DHT22;7593;49.006;8.372;2022-09-06T01:47:21;18.90;99.90
14995;DHT22;7593;49.006;8.372;2022-09-06T01:50:10;18.70;99.90
14995;DHT22;7593;49.006;8.372;2022-09-06T01:52:44;18.50;99.90
14995;DHT22;7593;49.006;8.372;2022-09-06T01:55:21;18.30;99.90
14995;DHT22;7593;49.006;8.372;2022-09-06T01:58:08;18.30;99.90
14995;DHT22;7593;49.006;8.372;2022-09-06T02:00:43;18.20;99.90
14995;DHT22;7593;49.006;8.372;2022-09-06T02:03:18;18.20;99.90
14995;DHT22;7593;49.006;8.372;2022-09-06T02:05:50;18.20;99.90
14995;DHT22;7593;49.006;8.372;2022-09-06T02:08:21;18.20;99.90
14995;DHT22;7593;49.006;8.372;2022-09-06T02:10:54;18.20;99.90
14995;DHT22;7593;49.006;8.372;2022-09-06T02:13:23;18.20;99.90
14995;DHT22;7593;49.006;8.372;2022-09-06T02:15:55;18.20;99.90
14995;DHT22;7593;49.006;8.372;2022-09-06T02:18:27;18.30;99.90
14995;DHT22;7593;49.006;8.372;2022-09-06T02:20:56;18.30;99.90
14995;DHT22;7593;49.006;8.372;2022-09-06T02:23:29;18.40;99.90
14995;DHT22;7593;49.006;8.372;2022-09-06T02:26:05;18.40;99.90
14995;DHT22;7593;49.006;8.372;2022-09-06T02:28:33;18.40;99.90
14995;DHT22;7593;49.006;8.372;2022-09-06T02:31:05;18.40;99.90
14995;DHT22;7593;49.006;8.372;2022-09-06T02:33:35;18.30;99.90
14995;DHT22;7593;49.006;8.372;2022-09-06T02:36:05;18.20;99.90
14995;DHT22;7593;49.006;8.372;2022-09-06T02:38:33;18.10;99.90
14995;DHT22;7593;49.006;8.372;2022-09-06T02:41:01;18.10;99.90
14995;DHT22;7593;49.006;8.372;2022-09-06T02:43:28;18.10;99.90
14995;DHT22;7593;49.006;8.372;2022-09-06T02:45:55;18.20;99.90
14995;DHT22;7593;49.006;8.372;2022-09-06T02:48:23;18.20;99.90
14995;DHT22;7593;49.006;8.372;2022-09-06T02:50:50;18.10;99.90
14995;DHT22;7593;49.006;8.372;2022-09-06T02:53:17;18.20;99.90
14995;DHT22;7593;49.006;8.372;2022-09-06T02:55:45;18.20;99.90
14995;DHT22;7593;49.006;8.372;2022-09-06T02:58:13;18.20;99.90
14995;DHT22;7593;49.006;8.372;2022-09-06T03:00:41;18.20;99.90
14995;DHT22;7593;49.006;8.372;2022-09-06T03:03:08;18.20;99.90
14995;DHT22;7593;49.006;8.372;2022-09-06T03:05:36;18.20;99.90
14995;DHT22;7593;49.006;8.372;2022-09-06T03:08:03;18.20;99.90
14995;DHT22;7593;49.006;8.372;2022-09-06T03:10:30;18.20;99.90
14995;DHT22;7593;49.006;8.372;2022-09-06T03:12:57;18.20;99.90
14995;DHT22;7593;49.006;8.372;2022-09-06T03:15:24;18.20;99.90
14995;DHT22;7593;49.006;8.372;2022-09-06T03:17:50;18.20;99.90
14995;DHT22;7593;49.006;8.372;2022-09-06T03:20:17;18.20;99.90
14995;DHT22;7593;49.006;8.372;2022-09-06T03:22:45;18.20;99.90
14995;DHT22;7593;49.006;8.372;2022-09-06T03:25:12;18.20;99.90
14995;DHT22;7593;49.006;8.372;2022-09-06T03:27:39;18.20;99.90
14995;DHT22;7593;49.006;8.372;2022-09-06T03:30:07;18.20;99.90
14995;DHT22;7593;49.006;8.372;2022-09-06T03:32:34;18.30;99.90
14995;DHT22;7593;49.006;8.372;2022-09-06T03:35:01;18.30;99.90
14995;DHT22;7593;49.006;8.372;2022-09-06T03:37:28;18.30;99.90
14995;DHT22;7593;49.006;8.372;2022-09-06T03:39:56;18.30;99.90
14995;DHT22;7593;49.006;8.372;2022-09-06T03:42:23;18.30;99.90
14995;DHT22;7593;49.006;8.372;2022-09-06T03:44:51;18.30;99.90
14995;DHT22;7593;49.006;8.372;2022-09-06T03:47:18;18.30;99.90
14995;DHT22;7593;49.006;8.372;2022-09-06T03:49:45;18.30;99.90
14995;DHT22;7593;49.006;8.372;2022-09-06T03:52:12;18.30;99.90
14995;DHT22;7593;49.006;8.372;2022-09-06T03:54:38;18.40;99.90
14995;DHT22;7593;49.006;8.372;2022-09-06T03:57:07;18.40;99.90
14995;DHT22;7593;49.006;8.372;2022-09-06T03:59:34;18.40;99.90
14995;DHT22;7593;49.006;8.372;2022-09-06T04:02:01;18.30;99.90
14995;DHT22;7593;49.006;8.372;2022-09-06T04:04:28;18.30;99.90
14995;DHT22;7593;49.006;8.372;2022-09-06T04:06:55;18.30;99.90
14995;DHT22;7593;49.006;8.372;2022-09-06T04:09:22;18.30;99.90
14995;DHT22;7593;49.006;8.372;2022-09-06T04:11:49;18.30;99.90
14995;DHT22;7593;49.006;8.372;2022-09-06T04:14:17;18.30;99.90
14995;DHT22;7593;49.006;8.372;2022-09-06T04:16:44;18.40;99.90
14995;DHT22;7593;49.006;8.372;2022-09-06T04:19:10;18.40;99.90
14995;DHT22;7593;49.006;8.372;2022-09-06T04:21:37;18.40;99.90
14995;DHT22;7593;49.006;8.372;2022-09-06T04:24:04;18.50;99.90
14995;DHT22;7593;49.006;8.372;2022-09-06T04:26:31;18.50;99.90
14995;DHT22;7593;49.006;8.372;2022-09-06T04:28:58;18.50;99.90
14995;DHT22;7593;49.006;8.372;2022-09-06T04:31:26;18.50;99.90
14995;DHT22;7593;49.006;8.372;2022-09-06T04:33:53;18.50;99.90
14995;DHT22;7593;49.006;8.372;2022-09-06T04:36:20;18.50;99.90
14995;DHT22;7593;49.006;8.372;2022-09-06T04:38:46;18.40;99.90
14995;DHT22;7593;49.006;8.372;2022-09-06T04:41:15;18.40;99.90
14995;DHT22;7593;49.006;8.372;2022-09-06T04:43:43;18.40;99.90
14995;DHT22;7593;49.006;8.372;2022-09-06T04:46:17;18.50;99.90
14995;DHT22;7593;49.006;8.372;2022-09-06T04:48:46;18.50;99.90
14995;DHT22;7593;49.006;8.372;2022-09-06T04:51:13;18.40;99.90
14995;DHT22;7593;49.006;8.372;2022-09-06T04:53:39;18.40;99.90
14995;DHT22;7593;49.006;8.372;2022-09-06T04:56:06;18.40;99.90
14995;DHT22;7593;49.006;8.372;2022-09-06T04:58:36;18.40;99.90
14995;DHT22;7593;49.006;8.372;2022-09-06T05:01:03;18.40;99.90
14995;DHT22;7593;49.006;8.372;2022-09-06T05:03:29;18.40;99.90
14995;DHT22;7593;49.006;8.372;2022-09-06T05:06:05;18.40;99.90
14995;DHT22;7593;49.006;8.372;2022-09-06T05:08:32;18.40;99.90
14995;DHT22;7593;49.006;8.372;2022-09-06T05:11:01;18.40;99.90
14995;DHT22;7593;49.006;8.372;2022-09-06T05:13:28;18.50;99.90
14995;DHT22;7593;49.006;8.372;2022-09-06T05:15:58;18.50;99.90
14995;DHT22;7593;49.006;8.372;2022-09-06T05:18:25;18.60;99.90
14995;DHT22;7593;49.006;8.372;2022-09-06T05:20:52;18.60;99.90
14995;DHT22;7593;49.006;8.372;2022-09-06T05:23:20;18.70;99.90
14995;DHT22;7593;49.006;8.372;2022-09-06T05:25:47;18.70;99.90
14995;DHT22;7593;49.006;8.372;2022-09-06T05:28:15;18.70;99.90
14995;DHT22;7593;49.006;8.372;2022-09-06T05:30:42;18.80;99.90
14995;DHT22;7593;49.006;8.372;2022-09-06T05:33:09;18.80;99.90
14995;DHT22;7593;49.006;8.372;2022-09-06T05:35:36;18.90;99.90
14995;DHT22;7593;49.006;8.372;2022-09-06T05:38:03;19.00;99.90
14995;DHT22;7593;49.006;8.372;2022-09-06T05:40:32;19.10;99.90
14995;DHT22;7593;49.006;8.372;2022-09-06T05:42:59;19.20;99.90
14995;DHT22;7593;49.006;8.372;2022-09-06T05:45:25;19.30;99.90
14995;DHT22;7593;49.006;8.372;2022-09-06T05:47:52;19.40;99.90
14995;DHT22;7593;49.006;8.372;2022-09-06T05:50:19;19.80;99.90
14995;DHT22;7593;49.006;8.372;2022-09-06T05:52:46;20.10;99.90
14995;DHT22;7593;49.006;8.372;2022-09-06T05:55:13;20.40;99.90
14995;DHT22;7593;49.006;8.372;2022-09-06T05:57:41;20.50;99.90
14995;DHT22;7593;49.006;8.372;2022-09-06T06:00:09;20.60;99.90
14995;DHT22;7593;49.006;8.372;2022-09-06T06:02:37;20.50;99.90
14995;DHT22;7593;49.006;8.372;2022-09-06T06:05:04;20.90;99.90
14995;DHT22;7593;49.006;8.372;2022-09-06T06:07:31;21.20;99.90
14995;DHT22;7593;49.006;8.372;2022-09-06T06:09:58;21.30;99.90
14995;DHT22;7593;49.006;8.372;2022-09-06T06:12:25;21.50;99.90
14995;DHT22;7593;49.006;8.372;2022-09-06T06:14:53;21.50;99.90
14995;DHT22;7593;49.006;8.372;2022-09-06T06:17:20;21.40;99.90
14995;DHT22;7593;49.006;8.372;2022-09-06T06:19:47;21.30;99.90
14995;DHT22;7593;49.006;8.372;2022-09-06T06:22:14;21.30;99.90
14995;DHT22;7593;49.006;8.372;2022-09-06T06:24:40;21.20;99.90
14995;DHT22;7593;49.006;8.372;2022-09-06T06:27:07;21.20;99.90
14995;DHT22;7593;49.006;8.372;2022-09-06T06:29:34;21.10;99.90
14995;DHT22;7593;49.006;8.372;2022-09-06T06:32:02;21.10;99.90
14995;DHT22;7593;49.006;8.372;2022-09-06T06:34:29;21.10;99.90
14995;DHT22;7593;49.006;8.372;2022-09-06T06:36:56;21.00;99.90
14995;DHT22;7593;49.006;8.372;2022-09-06T06:39:23;20.90;99.90
14995;DHT22;7593;49.006;8.372;2022-09-06T06:41:50;20.90;99.90
14995;DHT22;7593;49.006;8.372;2022-09-06T06:44:18;21.00;99.90
14995;DHT22;7593;49.006;8.372;2022-09-06T06:46:45;21.30;99.90
14995;DHT22;7593;49.006;8.372;2022-09-06T06:49:13;21.40;99.90
14995;DHT22;7593;49.006;8.372;2022-09-06T06:51:39;21.90;99.90
14995;DHT22;7593;49.006;8.372;2022-09-06T06:54:06;22.40;99.90
14995;DHT22;7593;49.006;8.372;2022-09-06T06:56:35;22.80;99.90
14995;DHT22;7593;49.006;8.372;2022-09-06T06:59:04;22.90;99.90
14995;DHT22;7593;49.006;8.372;2022-09-06T07:01:32;22.90;99.90
14995;DHT22;7593;49.006;8.372;2022-09-06T07:03:59;23.40;99.90
14995;DHT22;7593;49.006;8.372;2022-09-06T07:06:28;24.30;99.90
14995;DHT22;7593;49.006;8.372;2022-09-06T07:08:56;25.00;99.90
14995;DHT22;7593;49.006;8.372;2022-09-06T07:11:24;25.30;99.90
14995;DHT22;7593;49.006;8.372;2022-09-06T07:13:51;25.30;99.90
14995;DHT22;7593;49.006;8.372;2022-09-06T07:16:19;25.30;99.90
14995;DHT22;7593;49.006;8.372;2022-09-06T07:18:50;25.00;99.90
14995;DHT22;7593;49.006;8.372;2022-09-06T07:21:19;25.20;99.90
14995;DHT22;7593;49.006;8.372;2022-09-06T07:23:52;25.30;99.90
14995;DHT22;7593;49.006;8.372;2022-09-06T07:26:20;25.60;99.90
14995;DHT22;7593;49.006;8.372;2022-09-06T07:28:50;25.80;99.90
14995;DHT22;7593;49.006;8.372;2022-09-06T07:31:17;26.20;99.90
14995;DHT22;7593;49.006;8.372;2022-09-06T07:33:44;25.80;99.90
14995;DHT22;7593;49.006;8.372;2022-09-06T07:36:11;25.30;99.90
14995;DHT22;7593;49.006;8.372;2022-09-06T07:38:38;24.70;99.90
14995;DHT22;7593;49.006;8.372;2022-09-06T07:41:07;24.40;99.90
14995;DHT22;7593;49.006;8.372;2022-09-06T07:43:35;24.20;99.90
14995;DHT22;7593;49.006;8.372;2022-09-06T07:46:04;24.10;99.90
14995;DHT22;7593;49.006;8.372;2022-09-06T07:48:32;24.00;99.90
14995;DHT22;7593;49.006;8.372;2022-09-06T07:51:08;24.20;99.90
14995;DHT22;7593;49.006;8.372;2022-09-06T07:53:36;24.50;99.90
14995;DHT22;7593;49.006;8.372;2022-09-06T07:56:06;24.90;99.90
14995;DHT22;7593;49.006;8.372;2022-09-06T07:58:34;25.20;99.90
14995;DHT22;7593;49.006;8.372;2022-09-06T08:01:18;25.20;99.90
14995;DHT22;7593;49.006;8.372;2022-09-06T08:03:50;25.00;99.90
14995;DHT22;7593;49.006;8.372;2022-09-06T08:06:17;24.90;99.90
14995;DHT22;7593;49.006;8.372;2022-09-06T08:08:44;24.70;99.90
14995;DHT22;7593;49.006;8.372;2022-09-06T08:11:12;24.80;99.90
14995;DHT22;7593;49.006;8.372;2022-09-06T08:13:39;25.00;99.90
14995;DHT22;7593;49.006;8.372;2022-09-06T08:16:08;25.00;99.90
14995;DHT22;7593;49.006;8.372;2022-09-06T08:18:36;25.20;99.90
14995;DHT22;7593;49.006;8.372;2022-09-06T08:21:07;25.40;99.90
14995;DHT22;7593;49.006;8.372;2022-09-06T08:23:35;25.70;99.90
14995;DHT22;7593;49.006;8.372;2022-09-06T08:26:03;26.10;99.90
14995;DHT22;7593;49.006;8.372;2022-09-06T08:28:31;26.50;99.90
14995;DHT22;7593;49.006;8.372;2022-09-06T08:31:05;26.80;99.90
14995;DHT22;7593;49.006;8.372;2022-09-06T08:33:32;26.90;99.90
14995;DHT22;7593;49.006;8.372;2022-09-06T08:35:59;26.90;99.90
14995;DHT22;7593;49.006;8.372;2022-09-06T08:38:26;27.00;99.90
14995;DHT22;7593;49.006;8.372;2022-09-06T08:40:54;27.70;99.90
14995;DHT22;7593;49.006;8.372;2022-09-06T08:43:32;28.00;99.90
14995;DHT22;7593;49.006;8.372;2022-09-06T08:45:59;27.80;99.90
14995;DHT22;7593;49.006;8.372;2022-09-06T08:48:29;27.90;99.90
14995;DHT22;7593;49.006;8.372;2022-09-06T08:51:09;28.40;99.90
14995;DHT22;7593;49.006;8.372;2022-09-06T08:53:43;29.10;99.90
14995;DHT22;7593;49.006;8.372;2022-09-06T08:56:14;29.70;99.90
14995;DHT22;7593;49.006;8.372;2022-09-06T08:58:55;30.40;99.90
14995;DHT22;7593;49.006;8.372;2022-09-06T09:01:28;30.80;99.90
14995;DHT22;7593;49.006;8.372;2022-09-06T09:04:02;31.10;99.90
14995;DHT22;7593;49.006;8.372;2022-09-06T09:06:31;31.20;99.90
14995;DHT22;7593;49.006;8.372;2022-09-06T09:09:02;31.10;99.90
14995;DHT22;7593;49.006;8.372;2022-09-06T09:11:30;30.80;99.90
14995;DHT22;7593;49.006;8.372;2022-09-06T09:14:03;30.90;99.90
14995;DHT22;7593;49.006;8.372;2022-09-06T09:16:31;30.90;99.90
14995;DHT22;7593;49.006;8.372;2022-09-06T09:19:00;30.90;99.90
14995;DHT22;7593;49.006;8.372;2022-09-06T09:21:30;31.00;99.90
14995;DHT22;7593;49.006;8.372;2022-09-06T09:24:02;31.10;99.90
14995;DHT22;7593;49.006;8.372;2022-09-06T09:26:33;31.20;99.90
14995;DHT22;7593;49.006;8.372;2022-09-06T09:29:07;31.20;99.50
14995;DHT22;7593;49.006;8.372;2022-09-06T09:31:36;31.40;99.10
14995;DHT22;7593;49.006;8.372;2022-09-06T09:34:04;31.00;99.50
14995;DHT22;7593;49.006;8.372;2022-09-06T09:36:31;31.00;99.00
14995;DHT22;7593;49.006;8.372;2022-09-06T09:38:58;30.70;99.00
14995;DHT22;7593;49.006;8.372;2022-09-06T09:41:28;30.70;99.10
14995;DHT22;7593;49.006;8.372;2022-09-06T09:43:59;30.40;99.40
14995;DHT22;7593;49.006;8.372;2022-09-06T09:46:32;30.30;99.90
14995;DHT22;7593;49.006;8.372;2022-09-06T09:49:03;30.40;99.80
14995;DHT22;7593;49.006;8.372;2022-09-06T09:51:31;30.50;99.60
14995;DHT22;7593;49.006;8.372;2022-09-06T09:54:00;30.60;99.00
14995;DHT22;7593;49.006;8.372;2022-09-06T09:56:33;30.90;98.60
14995;DHT22;7593;49.006;8.372;2022-09-06T09:59:06;30.90;98.60
14995;DHT22;7593;49.006;8.372;2022-09-06T10:01:37;31.10;98.50
14995;DHT22;7593;49.006;8.372;2022-09-06T10:04:06;30.90;98.70
14995;DHT22;7593;49.006;8.372;2022-09-06T10:06:33;31.00;99.00
14995;DHT22;7593;49.006;8.372;2022-09-06T10:09:13;30.90;99.00
14995;DHT22;7593;49.006;8.372;2022-09-06T10:11:52;30.80;99.30
14995;DHT22;7593;49.006;8.372;2022-09-06T10:14:26;30.50;99.70
14995;DHT22;7593;49.006;8.372;2022-09-06T10:16:55;30.30;99.90
14995;DHT22;7593;49.006;8.372;2022-09-06T10:19:37;30.10;99.90
14995;DHT22;7593;49.006;8.372;2022-09-06T10:22:22;29.90;99.90
14995;DHT22;7593;49.006;8.372;2022-09-06T10:25:04;29.80;99.90
14995;DHT22;7593;49.006;8.372;2022-09-06T10:27:34;29.90;99.90
14995;DHT22;7593;49.006;8.372;2022-09-06T10:30:03;30.20;99.90
14995;DHT22;7593;49.006;8.372;2022-09-06T10:32:40;30.60;99.90
14995;DHT22;7593;49.006;8.372;2022-09-06T10:35:20;31.20;99.90
14995;DHT22;7593;49.006;8.372;2022-09-06T10:37:57;31.80;99.70
14995;DHT22;7593;49.006;8.372;2022-09-06T10:40:32;32.40;98.90
14995;DHT22;7593;49.006;8.372;2022-09-06T10:43:00;32.90;98.20
14995;DHT22;7593;49.006;8.372;2022-09-06T10:45:41;32.80;97.90
14995;DHT22;7593;49.006;8.372;2022-09-06T10:48:16;32.70;97.90
14995;DHT22;7593;49.006;8.372;2022-09-06T10:50:50;32.60;98.00
14995;DHT22;7593;49.006;8.372;2022-09-06T10:53:38;32.60;97.10
14995;DHT22;7593;49.006;8.372;2022-09-06T10:56:11;32.20;97.50
14995;DHT22;7593;49.006;8.372;2022-09-06T10:58:50;32.20;97.70
14995;DHT22;7593;49.006;8.372;2022-09-06T11:01:26;32.30;97.20
14995;DHT22;7593;49.006;8.372;2022-09-06T11:03:58;32.40;96.90
14995;DHT22;7593;49.006;8.372;2022-09-06T11:06:29;32.70;97.00
14995;DHT22;7593;49.006;8.372;2022-09-06T11:09:01;32.80;96.30
14995;DHT22;7593;49.006;8.372;2022-09-06T11:11:34;33.10;96.30
14995;DHT22;7593;49.006;8.372;2022-09-06T11:14:09;33.60;95.60
14995;DHT22;7593;49.006;8.372;2022-09-06T11:16:45;34.10;94.40
14995;DHT22;7593;49.006;8.372;2022-09-06T11:19:19;34.30;93.50
14995;DHT22;7593;49.006;8.372;2022-09-06T11:22:19;34.30;93.40
14995;DHT22;7593;49.006;8.372;2022-09-06T11:25:02;34.10;93.50
14995;DHT22;7593;49.006;8.372;2022-09-06T11:27:38;34.20;93.30
14995;DHT22;7593;49.006;8.372;2022-09-06T11:30:11;34.40;93.50
14995;DHT22;7593;49.006;8.372;2022-09-06T11:32:41;34.70;93.20
14995;DHT22;7593;49.006;8.372;2022-09-06T11:35:23;35.00;92.10
14995;DHT22;7593;49.006;8.372;2022-09-06T11:37:58;35.10;92.20
14995;DHT22;7593;49.006;8.372;2022-09-06T11:40:28;35.00;91.40
14995;DHT22;7593;49.006;8.372;2022-09-06T11:43:16;34.90;91.00
14995;DHT22;7593;49.006;8.372;2022-09-06T11:45:46;34.60;90.60
14995;DHT22;7593;49.006;8.372;2022-09-06T11:48:31;34.30;91.10
14995;DHT22;7593;49.006;8.372;2022-09-06T11:51:03;34.60;90.40
14995;DHT22;7593;49.006;8.372;2022-09-06T11:53:33;34.60;90.30
14995;DHT22;7593;49.006;8.372;2022-09-06T11:56:21;34.50;90.10
14995;DHT22;7593;49.006;8.372;2022-09-06T11:58:52;34.70;90.10
14995;DHT22;7593;49.006;8.372;2022-09-06T12:01:36;35.10;89.50
14995;DHT22;7593;49.006;8.372;2022-09-06T12:04:07;35.30;88.50
14995;DHT22;7593;49.006;8.372;2022-09-06T12:06:39;35.00;88.70
14995;DHT22;7593;49.006;8.372;2022-09-06T12:09:25;35.20;88.60
14995;DHT22;7593;49.006;8.372;2022-09-06T12:11:52;35.30;87.70
14995;DHT22;7593;49.006;8.372;2022-09-06T12:14:33;35.50;87.00
14995;DHT22;7593;49.006;8.372;2022-09-06T12:17:24;35.60;86.40
14995;DHT22;7593;49.006;8.372;2022-09-06T12:19:53;35.60;84.00
14995;DHT22;7593;49.006;8.372;2022-09-06T12:25:56;36.00;84.50
14995;DHT22;7593;49.006;8.372;2022-09-06T12:28:40;36.00;82.30
14995;DHT22;7593;49.006;8.372;2022-09-06T12:31:38;35.90;82.70
14995;DHT22;7593;49.006;8.372;2022-09-06T12:34:08;35.90;82.00
14995;DHT22;7593;49.006;8.372;2022-09-06T12:36:47;35.90;82.90
14995;DHT22;7593;49.006;8.372;2022-09-06T12:39:14;36.20;81.90
14995;DHT22;7593;49.006;8.372;2022-09-06T12:41:45;36.50;81.70
14995;DHT22;7593;49.006;8.372;2022-09-06T12:44:15;36.40;82.00
14995;DHT22;7593;49.006;8.372;2022-09-06T12:46:45;36.50;81.20
14995;DHT22;7593;49.006;8.372;2022-09-06T12:49:16;36.70;80.20
14995;DHT22;7593;49.006;8.372;2022-09-06T12:51:43;36.70;79.50
14995;DHT22;7593;49.006;8.372;2022-09-06T12:54:19;36.50;79.00
14995;DHT22;7593;49.006;8.372;2022-09-06T12:56:48;36.50;80.00
14995;DHT22;7593;49.006;8.372;2022-09-06T12:59:17;36.40;79.50
14995;DHT22;7593;49.006;8.372;2022-09-06T13:01:56;36.10;80.30
14995;DHT22;7593;49.006;8.372;2022-09-06T13:04:31;35.80;80.20
14995;DHT22;7593;49.006;8.372;2022-09-06T13:06:59;35.60;79.70
14995;DHT22;7593;49.006;8.372;2022-09-06T13:09:27;35.20;79.60
14995;DHT22;7593;49.006;8.372;2022-09-06T13:12:03;35.10;80.30
14995;DHT22;7593;49.006;8.372;2022-09-06T13:14:31;34.90;81.00
14995;DHT22;7593;49.006;8.372;2022-09-06T13:16:58;35.00;81.70
14995;DHT22;7593;49.006;8.372;2022-09-06T13:19:31;35.20;80.20
14995;DHT22;7593;49.006;8.372;2022-09-06T13:21:58;35.10;79.80
14995;DHT22;7593;49.006;8.372;2022-09-06T13:24:38;34.80;79.60
14995;DHT22;7593;49.006;8.372;2022-09-06T13:27:26;34.40;81.10
14995;DHT22;7593;49.006;8.372;2022-09-06T13:29:59;34.30;81.80
14995;DHT22;7593;49.006;8.372;2022-09-06T13:32:27;34.60;81.80
14995;DHT22;7593;49.006;8.372;2022-09-06T13:34:54;34.70;81.00
14995;DHT22;7593;49.006;8.372;2022-09-06T13:37:24;34.80;80.90
14995;DHT22;7593;49.006;8.372;2022-09-06T13:39:51;34.90;79.70
14995;DHT22;7593;49.006;8.372;2022-09-06T13:42:28;35.10;79.50
14995;DHT22;7593;49.006;8.372;2022-09-06T13:44:55;35.00;79.10
14995;DHT22;7593;49.006;8.372;2022-09-06T13:47:25;35.00;79.30
14995;DHT22;7593;49.006;8.372;2022-09-06T13:49:52;34.80;79.60
14995;DHT22;7593;49.006;8.372;2022-09-06T13:52:20;34.90;79.70
14995;DHT22;7593;49.006;8.372;2022-09-06T13:54:46;35.00;79.80
14995;DHT22;7593;49.006;8.372;2022-09-06T13:57:13;35.30;79.90
14995;DHT22;7593;49.006;8.372;2022-09-06T13:59:42;35.40;79.70
14995;DHT22;7593;49.006;8.372;2022-09-06T14:02:12;35.60;79.20
14995;DHT22;7593;49.006;8.372;2022-09-06T14:04:42;35.60;79.10
14995;DHT22;7593;49.006;8.372;2022-09-06T14:07:09;35.80;78.60
14995;DHT22;7593;49.006;8.372;2022-09-06T14:09:36;35.90;78.00
14995;DHT22;7593;49.006;8.372;2022-09-06T14:12:03;36.00;77.50
14995;DHT22;7593;49.006;8.372;2022-09-06T14:14:31;35.90;77.50
14995;DHT22;7593;49.006;8.372;2022-09-06T14:16:59;35.80;75.70
14995;DHT22;7593;49.006;8.372;2022-09-06T14:19:26;35.50;76.30
14995;DHT22;7593;49.006;8.372;2022-09-06T14:21:53;35.30;76.70
14995;DHT22;7593;49.006;8.372;2022-09-06T14:24:20;35.30;77.40
14995;DHT22;7593;49.006;8.372;2022-09-06T14:26:47;35.50;76.60
14995;DHT22;7593;49.006;8.372;2022-09-06T14:29:14;35.40;75.60
14995;DHT22;7593;49.006;8.372;2022-09-06T14:31:41;35.30;75.20
14995;DHT22;7593;49.006;8.372;2022-09-06T14:34:09;35.50;74.60
14995;DHT22;7593;49.006;8.372;2022-09-06T14:36:36;35.50;74.60
14995;DHT22;7593;49.006;8.372;2022-09-06T14:39:03;35.20;75.40
14995;DHT22;7593;49.006;8.372;2022-09-06T14:41:30;35.20;75.40
14995;DHT22;7593;49.006;8.372;2022-09-06T14:43:57;35.00;73.90
14995;DHT22;7593;49.006;8.372;2022-09-06T14:46:26;34.70;74.70
14995;DHT22;7593;49.006;8.372;2022-09-06T14:48:57;34.30;73.90
14995;DHT22;7593;49.006;8.372;2022-09-06T14:51:26;33.80;73.20
14995;DHT22;7593;49.006;8.372;2022-09-06T14:53:55;33.40;75.60
14995;DHT22;7593;49.006;8.372;2022-09-06T14:56:22;33.30;77.10
14995;DHT22;7593;49.006;8.372;2022-09-06T14:59:03;33.20;77.20
14995;DHT22;7593;49.006;8.372;2022-09-06T15:01:31;33.20;77.70
14995;DHT22;7593;49.006;8.372;2022-09-06T15:04:00;33.40;77.20
14995;DHT22;7593;49.006;8.372;2022-09-06T15:06:30;33.50;75.70
14995;DHT22;7593;49.006;8.372;2022-09-06T15:08:57;33.80;73.50
14995;DHT22;7593;49.006;8.372;2022-09-06T15:11:29;33.80;72.90
14995;DHT22;7593;49.006;8.372;2022-09-06T15:13:58;33.70;73.10
14995;DHT22;7593;49.006;8.372;2022-09-06T15:16:25;33.80;73.50
14995;DHT22;7593;49.006;8.372;2022-09-06T15:18:52;34.00;73.60
14995;DHT22;7593;49.006;8.372;2022-09-06T15:21:20;34.00;73.80
14995;DHT22;7593;49.006;8.372;2022-09-06T15:23:50;33.90;73.50
14995;DHT22;7593;49.006;8.372;2022-09-06T15:26:17;33.90;73.50
14995;DHT22;7593;49.006;8.372;2022-09-06T15:28:44;33.90;73.50
14995;DHT22;7593;49.006;8.372;2022-09-06T15:31:12;34.00;73.20
14995;DHT22;7593;49.006;8.372;2022-09-06T15:33:40;34.00;73.70
14995;DHT22;7593;49.006;8.372;2022-09-06T15:36:08;33.80;74.20
14995;DHT22;7593;49.006;8.372;2022-09-06T15:38:38;33.30;76.70
14995;DHT22;7593;49.006;8.372;2022-09-06T15:41:08;32.90;78.30
14995;DHT22;7593;49.006;8.372;2022-09-06T15:43:39;32.60;78.90
14995;DHT22;7593;49.006;8.372;2022-09-06T15:46:07;32.60;79.20
14995;DHT22;7593;49.006;8.372;2022-09-06T15:48:39;32.60;78.80
14995;DHT22;7593;49.006;8.372;2022-09-06T15:51:06;32.40;78.50
14995;DHT22;7593;49.006;8.372;2022-09-06T15:53:33;32.40;78.50
14995;DHT22;7593;49.006;8.372;2022-09-06T15:56:00;32.30;79.10
14995;DHT22;7593;49.006;8.372;2022-09-06T15:58:30;32.10;79.60
14995;DHT22;7593;49.006;8.372;2022-09-06T16:01:05;31.90;80.40
14995;DHT22;7593;49.006;8.372;2022-09-06T16:03:35;31.90;80.10
14995;DHT22;7593;49.006;8.372;2022-09-06T16:06:04;31.70;80.10
14995;DHT22;7593;49.006;8.372;2022-09-06T16:08:31;31.70;80.20
14995;DHT22;7593;49.006;8.372;2022-09-06T16:10:58;31.70;80.00
14995;DHT22;7593;49.006;8.372;2022-09-06T16:13:32;31.60;80.60